HTIR/IRI METAR and TAF weather

Enter ICAO airport designator
Station Type Date Time Source
HTIR METAR 2019/12/14 11:00 UTC NOAA

HTIR 141100Z 05010KT 9999 BKN030 FEW031CB 29/15 Q1019


Station Type Date Time Source
HTIR Decoded METAR 2019/12/14 11:00 UTC NOAA

Iringa, Tanzania (HTIR) 07-40S 035-45E 1428M
Dec 14, 2019 - 06:00 AM EST / 2019.12.14 1100 UTC
Wind: from the NE (050 degrees) at 12 MPH (10 KT):0
Visibility: greater than 7 mile(s):0
Sky conditions: mostly cloudy
Weather: Cumulonimbus clouds observed
Temperature: 84 F (29 C)
Dew Point: 59 F (15 C)
Relative Humidity: 42%
Pressure (altimeter): 30.09 in. Hg (1019 hPa)
ob: HTIR 141100Z 05010KT 9999 BKN030 FEW031CB 29/15 Q1019
cycle: 11

Station Type Date Time Source
HTIR TAF UTC NOAA

Error!

Example: see airport list